sensor_id;sensor_type;location;lat;lon;timestamp;P1;durP1;ratioP1;P2;durP2;ratioP2
37355;SDS011;48747;50.250;18.848;2023-07-08T00:01:20;8.53;;;5.85;;
37355;SDS011;48747;50.250;18.848;2023-07-08T00:03:24;9.85;;;6.03;;
37355;SDS011;48747;50.250;18.848;2023-07-08T00:05:27;11.75;;;6.05;;
37355;SDS011;48747;50.250;18.848;2023-07-08T00:07:30;9.63;;;5.72;;
37355;SDS011;48747;50.250;18.848;2023-07-08T00:09:33;8.30;;;5.53;;
37355;SDS011;48747;50.250;18.848;2023-07-08T00:11:36;10.85;;;5.90;;
37355;SDS011;48747;50.250;18.848;2023-07-08T00:13:39;12.43;;;5.90;;
37355;SDS011;48747;50.250;18.848;2023-07-08T00:15:42;9.80;;;5.40;;
37355;SDS011;48747;50.250;18.848;2023-07-08T00:17:45;10.23;;;6.15;;
37355;SDS011;48747;50.250;18.848;2023-07-08T00:19:48;9.85;;;6.00;;
37355;SDS011;48747;50.250;18.848;2023-07-08T00:21:53;8.33;;;5.70;;
37355;SDS011;48747;50.250;18.848;2023-07-08T00:23:56;9.20;;;5.67;;
37355;SDS011;48747;50.250;18.848;2023-07-08T00:25:59;10.20;;;5.92;;
37355;SDS011;48747;50.250;18.848;2023-07-08T00:28:04;10.63;;;5.58;;
37355;SDS011;48747;50.250;18.848;2023-07-08T00:30:20;8.70;;;5.60;;
37355;SDS011;48747;50.250;18.848;2023-07-08T00:32:27;11.15;;;5.85;;
37355;SDS011;48747;50.250;18.848;2023-07-08T00:34:31;7.97;;;5.37;;
37355;SDS011;48747;50.250;18.848;2023-07-08T00:36:35;7.67;;;5.65;;
37355;SDS011;48747;50.250;18.848;2023-07-08T00:38:42;11.10;;;5.45;;
37355;SDS011;48747;50.250;18.848;2023-07-08T00:40:57;11.50;;;5.80;;
37355;SDS011;48747;50.250;18.848;2023-07-08T00:42:54;8.10;;;5.33;;
37355;SDS011;48747;50.250;18.848;2023-07-08T00:44:58;9.70;;;5.72;;
37355;SDS011;48747;50.250;18.848;2023-07-08T00:47:04;9.70;;;5.42;;
37355;SDS011;48747;50.250;18.848;2023-07-08T00:51:27;12.43;;;5.90;;
37355;SDS011;48747;50.250;18.848;2023-07-08T00:53:36;8.98;;;5.55;;
37355;SDS011;48747;50.250;18.848;2023-07-08T00:55:35;10.25;;;5.67;;
37355;SDS011;48747;50.250;18.848;2023-07-08T00:57:41;9.40;;;5.45;;
37355;SDS011;48747;50.250;18.848;2023-07-08T00:59:53;9.98;;;5.53;;
37355;SDS011;48747;50.250;18.848;2023-07-08T01:01:58;7.47;;;5.53;;
37355;SDS011;48747;50.250;18.848;2023-07-08T01:04:09;10.30;;;5.90;;
37355;SDS011;48747;50.250;18.848;2023-07-08T01:06:14;7.97;;;5.78;;
37355;SDS011;48747;50.250;18.848;2023-07-08T01:08:19;8.13;;;5.80;;
37355;SDS011;48747;50.250;18.848;2023-07-08T01:10:26;10.15;;;5.87;;
37355;SDS011;48747;50.250;18.848;2023-07-08T01:12:31;8.08;;;6.05;;
37355;SDS011;48747;50.250;18.848;2023-07-08T01:14:40;7.58;;;5.83;;
37355;SDS011;48747;50.250;18.848;2023-07-08T01:16:44;8.83;;;5.62;;
37355;SDS011;48747;50.250;18.848;2023-07-08T01:18:48;10.45;;;5.78;;
37355;SDS011;48747;50.250;18.848;2023-07-08T01:20:53;9.80;;;5.80;;
37355;SDS011;48747;50.250;18.848;2023-07-08T01:22:59;8.73;;;5.55;;
37355;SDS011;48747;50.250;18.848;2023-07-08T01:25:02;12.60;;;5.85;;
37355;SDS011;48747;50.250;18.848;2023-07-08T01:27:07;8.85;;;5.58;;
37355;SDS011;48747;50.250;18.848;2023-07-08T01:29:12;10.90;;;6.28;;
37355;SDS011;48747;50.250;18.848;2023-07-08T01:31:15;9.38;;;5.30;;
37355;SDS011;48747;50.250;18.848;2023-07-08T01:33:19;9.50;;;5.85;;
37355;SDS011;48747;50.250;18.848;2023-07-08T01:35:26;9.15;;;5.60;;
37355;SDS011;48747;50.250;18.848;2023-07-08T01:39:41;8.53;;;5.72;;
37355;SDS011;48747;50.250;18.848;2023-07-08T01:41:44;9.18;;;5.55;;
37355;SDS011;48747;50.250;18.848;2023-07-08T01:43:47;10.05;;;5.53;;
37355;SDS011;48747;50.250;18.848;2023-07-08T01:45:53;11.63;;;5.65;;
37355;SDS011;48747;50.250;18.848;2023-07-08T01:47:59;12.00;;;6.00;;
37355;SDS011;48747;50.250;18.848;2023-07-08T01:50:06;12.58;;;6.80;;
37355;SDS011;48747;50.250;18.848;2023-07-08T01:52:11;10.38;;;5.83;;
37355;SDS011;48747;50.250;18.848;2023-07-08T01:54:16;10.60;;;5.95;;
37355;SDS011;48747;50.250;18.848;2023-07-08T01:56:19;8.33;;;5.62;;
37355;SDS011;48747;50.250;18.848;2023-07-08T01:58:22;8.70;;;5.53;;
37355;SDS011;48747;50.250;18.848;2023-07-08T02:00:28;7.40;;;5.78;;
37355;SDS011;48747;50.250;18.848;2023-07-08T02:02:31;8.60;;;5.90;;
37355;SDS011;48747;50.250;18.848;2023-07-08T02:04:34;9.25;;;6.03;;
37355;SDS011;48747;50.250;18.848;2023-07-08T02:06:37;8.73;;;5.40;;
37355;SDS011;48747;50.250;18.848;2023-07-08T02:08:40;10.40;;;6.03;;
37355;SDS011;48747;50.250;18.848;2023-07-08T02:10:48;11.55;;;6.08;;
37355;SDS011;48747;50.250;18.848;2023-07-08T02:12:52;11.43;;;6.25;;
37355;SDS011;48747;50.250;18.848;2023-07-08T02:14:55;11.05;;;5.90;;
37355;SDS011;48747;50.250;18.848;2023-07-08T02:17:02;13.13;;;6.12;;
37355;SDS011;48747;50.250;18.848;2023-07-08T02:19:07;8.40;;;5.75;;
37355;SDS011;48747;50.250;18.848;2023-07-08T02:21:10;10.58;;;6.12;;
37355;SDS011;48747;50.250;18.848;2023-07-08T02:23:14;10.40;;;6.00;;
37355;SDS011;48747;50.250;18.848;2023-07-08T02:25:23;9.80;;;6.20;;
37355;SDS011;48747;50.250;18.848;2023-07-08T02:27:24;11.97;;;6.62;;
37355;SDS011;48747;50.250;18.848;2023-07-08T02:29:29;9.60;;;6.35;;
37355;SDS011;48747;50.250;18.848;2023-07-08T02:31:34;11.40;;;6.30;;
37355;SDS011;48747;50.250;18.848;2023-07-08T02:33:37;15.83;;;6.87;;
37355;SDS011;48747;50.250;18.848;2023-07-08T02:35:40;10.60;;;6.53;;
37355;SDS011;48747;50.250;18.848;2023-07-08T02:37:45;10.25;;;6.60;;
37355;SDS011;48747;50.250;18.848;2023-07-08T02:39:48;13.68;;;6.35;;
37355;SDS011;48747;50.250;18.848;2023-07-08T02:41:51;11.70;;;7.22;;
37355;SDS011;48747;50.250;18.848;2023-07-08T02:43:56;11.22;;;6.40;;
37355;SDS011;48747;50.250;18.848;2023-07-08T02:45:59;13.48;;;6.42;;
37355;SDS011;48747;50.250;18.848;2023-07-08T02:48:02;10.38;;;7.33;;
37355;SDS011;48747;50.250;18.848;2023-07-08T02:50:07;12.18;;;7.85;;
37355;SDS011;48747;50.250;18.848;2023-07-08T02:52:13;13.62;;;7.05;;
37355;SDS011;48747;50.250;18.848;2023-07-08T02:54:17;11.88;;;7.03;;
37355;SDS011;48747;50.250;18.848;2023-07-08T02:56:22;10.60;;;7.08;;
37355;SDS011;48747;50.250;18.848;2023-07-08T02:58:26;9.83;;;7.05;;
37355;SDS011;48747;50.250;18.848;2023-07-08T03:00:30;11.68;;;7.30;;
37355;SDS011;48747;50.250;18.848;2023-07-08T03:02:35;11.48;;;7.03;;
37355;SDS011;48747;50.250;18.848;2023-07-08T03:04:38;13.08;;;7.15;;
37355;SDS011;48747;50.250;18.848;2023-07-08T03:06:44;18.60;;;7.62;;
37355;SDS011;48747;50.250;18.848;2023-07-08T03:08:49;11.43;;;7.40;;
37355;SDS011;48747;50.250;18.848;2023-07-08T03:10:56;11.68;;;7.37;;
37355;SDS011;48747;50.250;18.848;2023-07-08T03:13:01;11.00;;;7.30;;
37355;SDS011;48747;50.250;18.848;2023-07-08T03:15:04;11.78;;;7.55;;
37355;SDS011;48747;50.250;18.848;2023-07-08T03:17:08;12.05;;;7.53;;
37355;SDS011;48747;50.250;18.848;2023-07-08T03:19:11;10.95;;;7.55;;
37355;SDS011;48747;50.250;18.848;2023-07-08T03:21:17;12.00;;;7.87;;
37355;SDS011;48747;50.250;18.848;2023-07-08T03:23:20;10.63;;;7.35;;
37355;SDS011;48747;50.250;18.848;2023-07-08T03:25:30;10.28;;;7.15;;
37355;SDS011;48747;50.250;18.848;2023-07-08T03:27:32;11.57;;;7.15;;
37355;SDS011;48747;50.250;18.848;2023-07-08T03:29:35;10.00;;;6.58;;
37355;SDS011;48747;50.250;18.848;2023-07-08T03:31:38;10.82;;;6.87;;
37355;SDS011;48747;50.250;18.848;2023-07-08T03:33:41;12.50;;;7.03;;
37355;SDS011;48747;50.250;18.848;2023-07-08T03:35:44;13.15;;;7.30;;
37355;SDS011;48747;50.250;18.848;2023-07-08T03:37:55;12.63;;;7.10;;
37355;SDS011;48747;50.250;18.848;2023-07-08T03:39:59;11.88;;;7.55;;
37355;SDS011;48747;50.250;18.848;2023-07-08T03:41:59;11.15;;;7.42;;
37355;SDS011;48747;50.250;18.848;2023-07-08T03:44:03;12.00;;;7.92;;
37355;SDS011;48747;50.250;18.848;2023-07-08T03:46:07;15.50;;;7.72;;
37355;SDS011;48747;50.250;18.848;2023-07-08T03:48:14;13.35;;;7.67;;
37355;SDS011;48747;50.250;18.848;2023-07-08T03:50:20;14.80;;;8.38;;
37355;SDS011;48747;50.250;18.848;2023-07-08T03:52:26;12.93;;;8.03;;
37355;SDS011;48747;50.250;18.848;2023-07-08T03:54:29;15.00;;;8.20;;
37355;SDS011;48747;50.250;18.848;2023-07-08T03:56:34;13.58;;;9.15;;
37355;SDS011;48747;50.250;18.848;2023-07-08T03:58:37;13.98;;;8.13;;
37355;SDS011;48747;50.250;18.848;2023-07-08T04:00:40;14.03;;;8.48;;
37355;SDS011;48747;50.250;18.848;2023-07-08T04:02:43;13.40;;;8.33;;
37355;SDS011;48747;50.250;18.848;2023-07-08T04:04:48;12.65;;;8.68;;
37355;SDS011;48747;50.250;18.848;2023-07-08T04:06:52;14.55;;;9.50;;
37355;SDS011;48747;50.250;18.848;2023-07-08T04:08:56;14.60;;;9.53;;
37355;SDS011;48747;50.250;18.848;2023-07-08T04:10:59;13.22;;;9.20;;
37355;SDS011;48747;50.250;18.848;2023-07-08T04:13:03;14.03;;;10.25;;
37355;SDS011;48747;50.250;18.848;2023-07-08T04:15:07;13.03;;;9.63;;
37355;SDS011;48747;50.250;18.848;2023-07-08T04:17:11;18.45;;;10.40;;
37355;SDS011;48747;50.250;18.848;2023-07-08T04:19:15;19.25;;;11.18;;
37355;SDS011;48747;50.250;18.848;2023-07-08T04:21:18;21.07;;;11.75;;
37355;SDS011;48747;50.250;18.848;2023-07-08T04:23:22;22.48;;;12.78;;
37355;SDS011;48747;50.250;18.848;2023-07-08T04:25:25;21.30;;;12.55;;
37355;SDS011;48747;50.250;18.848;2023-07-08T04:27:28;19.65;;;13.00;;
37355;SDS011;48747;50.250;18.848;2023-07-08T04:29:31;25.95;;;13.83;;
37355;SDS011;48747;50.250;18.848;2023-07-08T04:31:34;22.30;;;13.08;;
37355;SDS011;48747;50.250;18.848;2023-07-08T04:33:39;19.30;;;12.73;;
37355;SDS011;48747;50.250;18.848;2023-07-08T04:35:42;17.40;;;11.33;;
37355;SDS011;48747;50.250;18.848;2023-07-08T04:37:46;22.67;;;12.35;;
37355;SDS011;48747;50.250;18.848;2023-07-08T04:39:49;21.05;;;12.35;;
37355;SDS011;48747;50.250;18.848;2023-07-08T04:41:52;29.27;;;13.65;;
37355;SDS011;48747;50.250;18.848;2023-07-08T04:43:55;23.47;;;12.93;;
37355;SDS011;48747;50.250;18.848;2023-07-08T04:46:00;22.70;;;11.68;;
37355;SDS011;48747;50.250;18.848;2023-07-08T04:48:06;23.10;;;12.25;;
37355;SDS011;48747;50.250;18.848;2023-07-08T04:50:13;18.65;;;11.53;;
37355;SDS011;48747;50.250;18.848;2023-07-08T04:52:17;22.27;;;11.95;;
37355;SDS011;48747;50.250;18.848;2023-07-08T04:54:20;23.92;;;11.85;;
37355;SDS011;48747;50.250;18.848;2023-07-08T04:56:25;23.98;;;12.00;;
37355;SDS011;48747;50.250;18.848;2023-07-08T04:58:29;26.82;;;12.20;;
37355;SDS011;48747;50.250;18.848;2023-07-08T05:00:34;27.67;;;12.78;;
37355;SDS011;48747;50.250;18.848;2023-07-08T05:02:37;30.45;;;13.95;;
37355;SDS011;48747;50.250;18.848;2023-07-08T05:04:43;22.87;;;12.30;;
37355;SDS011;48747;50.250;18.848;2023-07-08T05:06:47;30.95;;;13.15;;
37355;SDS011;48747;50.250;18.848;2023-07-08T05:08:53;25.05;;;12.58;;
37355;SDS011;48747;50.250;18.848;2023-07-08T05:10:56;26.35;;;13.05;;
37355;SDS011;48747;50.250;18.848;2023-07-08T05:13:00;35.50;;;15.20;;
37355;SDS011;48747;50.250;18.848;2023-07-08T05:15:04;42.48;;;17.12;;
37355;SDS011;48747;50.250;18.848;2023-07-08T05:17:08;22.65;;;13.00;;
37355;SDS011;48747;50.250;18.848;2023-07-08T05:19:11;20.32;;;12.30;;
37355;SDS011;48747;50.250;18.848;2023-07-08T05:21:15;18.73;;;11.70;;
37355;SDS011;48747;50.250;18.848;2023-07-08T05:23:20;21.30;;;12.60;;
37355;SDS011;48747;50.250;18.848;2023-07-08T05:25:25;23.75;;;13.15;;
37355;SDS011;48747;50.250;18.848;2023-07-08T05:27:29;20.40;;;12.28;;
37355;SDS011;48747;50.250;18.848;2023-07-08T05:29:33;23.95;;;12.65;;
37355;SDS011;48747;50.250;18.848;2023-07-08T05:31:37;23.87;;;12.25;;
37355;SDS011;48747;50.250;18.848;2023-07-08T05:33:41;22.13;;;11.57;;
37355;SDS011;48747;50.250;18.848;2023-07-08T05:35:46;22.62;;;11.25;;
37355;SDS011;48747;50.250;18.848;2023-07-08T05:37:49;22.30;;;11.88;;
37355;SDS011;48747;50.250;18.848;2023-07-08T05:39:52;19.77;;;10.75;;
37355;SDS011;48747;50.250;18.848;2023-07-08T05:41:56;17.48;;;10.38;;
37355;SDS011;48747;50.250;18.848;2023-07-08T05:43:59;23.62;;;11.22;;
37355;SDS011;48747;50.250;18.848;2023-07-08T05:46:02;16.93;;;9.75;;
37355;SDS011;48747;50.250;18.848;2023-07-08T05:48:07;19.67;;;9.95;;
37355;SDS011;48747;50.250;18.848;2023-07-08T05:50:15;20.80;;;10.45;;
37355;SDS011;48747;50.250;18.848;2023-07-08T05:52:14;16.77;;;9.20;;
37355;SDS011;48747;50.250;18.848;2023-07-08T05:54:17;15.75;;;8.70;;
37355;SDS011;48747;50.250;18.848;2023-07-08T05:56:20;15.38;;;9.03;;
37355;SDS011;48747;50.250;18.848;2023-07-08T05:58:24;13.68;;;8.90;;
37355;SDS011;48747;50.250;18.848;2023-07-08T06:00:27;16.65;;;9.33;;
37355;SDS011;48747;50.250;18.848;2023-07-08T06:02:32;14.98;;;9.18;;
37355;SDS011;48747;50.250;18.848;2023-07-08T06:04:35;15.95;;;8.63;;
37355;SDS011;48747;50.250;18.848;2023-07-08T06:06:40;15.93;;;9.53;;
37355;SDS011;48747;50.250;18.848;2023-07-08T06:08:44;14.40;;;8.88;;
37355;SDS011;48747;50.250;18.848;2023-07-08T06:10:48;17.30;;;8.68;;
37355;SDS011;48747;50.250;18.848;2023-07-08T06:12:52;19.32;;;9.53;;
37355;SDS011;48747;50.250;18.848;2023-07-08T06:14:56;15.83;;;8.88;;
37355;SDS011;48747;50.250;18.848;2023-07-08T06:16:59;14.70;;;9.38;;
37355;SDS011;48747;50.250;18.848;2023-07-08T06:19:02;13.05;;;8.73;;
37355;SDS011;48747;50.250;18.848;2023-07-08T06:21:05;15.40;;;8.60;;
37355;SDS011;48747;50.250;18.848;2023-07-08T06:23:08;16.77;;;9.85;;
37355;SDS011;48747;50.250;18.848;2023-07-08T06:25:11;20.75;;;8.70;;
37355;SDS011;48747;50.250;18.848;2023-07-08T06:27:14;16.85;;;8.80;;
37355;SDS011;48747;50.250;18.848;2023-07-08T06:29:18;17.37;;;9.53;;
37355;SDS011;48747;50.250;18.848;2023-07-08T06:31:21;15.53;;;8.85;;
37355;SDS011;48747;50.250;18.848;2023-07-08T06:33:25;14.15;;;8.75;;
37355;SDS011;48747;50.250;18.848;2023-07-08T06:35:33;15.68;;;8.05;;
37355;SDS011;48747;50.250;18.848;2023-07-08T06:37:36;14.28;;;8.10;;
37355;SDS011;48747;50.250;18.848;2023-07-08T06:39:39;15.48;;;8.95;;
37355;SDS011;48747;50.250;18.848;2023-07-08T06:41:42;13.65;;;7.62;;
37355;SDS011;48747;50.250;18.848;2023-07-08T06:43:47;12.25;;;6.92;;
37355;SDS011;48747;50.250;18.848;2023-07-08T06:45:51;12.70;;;7.22;;
37355;SDS011;48747;50.250;18.848;2023-07-08T06:47:55;11.85;;;7.30;;
37355;SDS011;48747;50.250;18.848;2023-07-08T06:49:58;14.18;;;7.12;;
37355;SDS011;48747;50.250;18.848;2023-07-08T06:52:01;11.30;;;7.10;;
37355;SDS011;48747;50.250;18.848;2023-07-08T06:54:06;13.28;;;6.75;;
37355;SDS011;48747;50.250;18.848;2023-07-08T06:56:11;10.78;;;6.40;;
37355;SDS011;48747;50.250;18.848;2023-07-08T06:58:16;13.62;;;6.33;;
37355;SDS011;48747;50.250;18.848;2023-07-08T07:00:19;11.85;;;6.35;;
37355;SDS011;48747;50.250;18.848;2023-07-08T07:02:22;13.83;;;6.70;;
37355;SDS011;48747;50.250;18.848;2023-07-08T07:04:25;11.22;;;6.72;;
37355;SDS011;48747;50.250;18.848;2023-07-08T07:06:31;14.15;;;6.42;;
37355;SDS011;48747;50.250;18.848;2023-07-08T07:08:35;9.95;;;5.58;;
37355;SDS011;48747;50.250;18.848;2023-07-08T07:10:43;10.58;;;6.00;;
37355;SDS011;48747;50.250;18.848;2023-07-08T07:12:42;9.00;;;6.37;;
37355;SDS011;48747;50.250;18.848;2023-07-08T07:14:45;8.63;;;5.72;;
37355;SDS011;48747;50.250;18.848;2023-07-08T07:16:50;10.75;;;5.75;;
37355;SDS011;48747;50.250;18.848;2023-07-08T07:18:53;9.20;;;5.55;;
37355;SDS011;48747;50.250;18.848;2023-07-08T07:20:57;10.78;;;5.47;;
37355;SDS011;48747;50.250;18.848;2023-07-08T07:23:00;10.90;;;4.90;;
37355;SDS011;48747;50.250;18.848;2023-07-08T07:25:04;8.68;;;5.22;;
37355;SDS011;48747;50.250;18.848;2023-07-08T07:27:08;7.08;;;4.47;;
37355;SDS011;48747;50.250;18.848;2023-07-08T07:29:13;8.45;;;4.65;;
37355;SDS011;48747;50.250;18.848;2023-07-08T07:31:18;7.95;;;4.42;;
37355;SDS011;48747;50.250;18.848;2023-07-08T07:33:21;7.87;;;4.40;;
37355;SDS011;48747;50.250;18.848;2023-07-08T07:35:24;10.40;;;4.67;;
37355;SDS011;48747;50.250;18.848;2023-07-08T07:37:27;7.53;;;4.20;;
37355;SDS011;48747;50.250;18.848;2023-07-08T07:39:30;6.40;;;4.00;;
37355;SDS011;48747;50.250;18.848;2023-07-08T07:41:33;8.43;;;3.85;;
37355;SDS011;48747;50.250;18.848;2023-07-08T07:43:36;6.50;;;4.30;;
37355;SDS011;48747;50.250;18.848;2023-07-08T07:45:39;6.95;;;3.80;;
37355;SDS011;48747;50.250;18.848;2023-07-08T07:47:42;8.18;;;4.00;;
37355;SDS011;48747;50.250;18.848;2023-07-08T07:49:45;8.03;;;4.10;;
37355;SDS011;48747;50.250;18.848;2023-07-08T07:51:48;6.45;;;4.20;;
37355;SDS011;48747;50.250;18.848;2023-07-08T07:53:52;10.38;;;3.98;;
37355;SDS011;48747;50.250;18.848;2023-07-08T07:55:56;6.53;;;3.70;;
37355;SDS011;48747;50.250;18.848;2023-07-08T07:58:00;6.72;;;3.70;;
37355;SDS011;48747;50.250;18.848;2023-07-08T08:00:04;6.10;;;3.90;;
37355;SDS011;48747;50.250;18.848;2023-07-08T08:02:08;5.65;;;3.60;;
37355;SDS011;48747;50.250;18.848;2023-07-08T08:04:13;6.40;;;3.70;;
37355;SDS011;48747;50.250;18.848;2023-07-08T08:06:16;7.35;;;3.80;;
37355;SDS011;48747;50.250;18.848;2023-07-08T08:08:19;9.78;;;3.80;;
37355;SDS011;48747;50.250;18.848;2023-07-08T08:10:23;7.87;;;3.85;;
37355;SDS011;48747;50.250;18.848;2023-07-08T08:12:26;5.15;;;3.12;;
37355;SDS011;48747;50.250;18.848;2023-07-08T08:14:30;5.83;;;3.62;;
37355;SDS011;48747;50.250;18.848;2023-07-08T08:16:33;5.92;;;3.17;;
37355;SDS011;48747;50.250;18.848;2023-07-08T08:18:36;5.87;;;3.65;;
37355;SDS011;48747;50.250;18.848;2023-07-08T08:20:39;6.05;;;3.15;;
37355;SDS011;48747;50.250;18.848;2023-07-08T08:22:42;5.12;;;3.20;;
37355;SDS011;48747;50.250;18.848;2023-07-08T08:24:45;5.17;;;3.37;;
37355;SDS011;48747;50.250;18.848;2023-07-08T08:26:48;6.00;;;2.92;;
37355;SDS011;48747;50.250;18.848;2023-07-08T08:28:52;6.05;;;2.60;;
37355;SDS011;48747;50.250;18.848;2023-07-08T08:30:55;4.05;;;2.77;;
37355;SDS011;48747;50.250;18.848;2023-07-08T08:32:58;4.42;;;2.55;;
37355;SDS011;48747;50.250;18.848;2023-07-08T08:35:02;4.95;;;2.20;;
37355;SDS011;48747;50.250;18.848;2023-07-08T08:37:05;6.95;;;2.00;;
37355;SDS011;48747;50.250;18.848;2023-07-08T08:39:08;3.30;;;2.40;;
37355;SDS011;48747;50.250;18.848;2023-07-08T08:41:18;4.45;;;2.15;;
37355;SDS011;48747;50.250;18.848;2023-07-08T08:43:28;4.12;;;2.30;;
37355;SDS011;48747;50.250;18.848;2023-07-08T08:45:36;3.65;;;2.47;;
37355;SDS011;48747;50.250;18.848;2023-07-08T08:47:40;5.50;;;2.58;;
37355;SDS011;48747;50.250;18.848;2023-07-08T08:49:48;5.75;;;2.60;;
37355;SDS011;48747;50.250;18.848;2023-07-08T08:51:52;4.72;;;2.30;;
37355;SDS011;48747;50.250;18.848;2023-07-08T08:53:56;3.58;;;2.20;;
37355;SDS011;48747;50.250;18.848;2023-07-08T08:58:47;4.45;;;2.40;;
37355;SDS011;48747;50.250;18.848;2023-07-08T09:00:51;7.15;;;2.33;;
37355;SDS011;48747;50.250;18.848;2023-07-08T09:03:02;3.95;;;2.30;;
37355;SDS011;48747;50.250;18.848;2023-07-08T09:05:09;3.87;;;2.25;;
37355;SDS011;48747;50.250;18.848;2023-07-08T09:07:14;4.60;;;2.30;;
37355;SDS011;48747;50.250;18.848;2023-07-08T09:09:22;5.08;;;2.35;;
37355;SDS011;48747;50.250;18.848;2023-07-08T09:11:36;5.28;;;1.95;;
37355;SDS011;48747;50.250;18.848;2023-07-08T09:13:41;3.95;;;2.10;;
37355;SDS011;48747;50.250;18.848;2023-07-08T09:15:44;6.55;;;2.45;;
37355;SDS011;48747;50.250;18.848;2023-07-08T09:17:47;5.58;;;2.30;;
37355;SDS011;48747;50.250;18.848;2023-07-08T09:22:34;3.27;;;2.20;;
37355;SDS011;48747;50.250;18.848;2023-07-08T09:24:23;5.72;;;2.22;;
37355;SDS011;48747;50.250;18.848;2023-07-08T09:26:48;5.37;;;2.60;;
37355;SDS011;48747;50.250;18.848;2023-07-08T09:28:58;3.58;;;2.25;;
37355;SDS011;48747;50.250;18.848;2023-07-08T09:31:03;4.30;;;2.27;;
37355;SDS011;48747;50.250;18.848;2023-07-08T09:40:59;6.35;;;2.37;;
37355;SDS011;48747;50.250;18.848;2023-07-08T09:43:26;4.78;;;2.20;;
37355;SDS011;48747;50.250;18.848;2023-07-08T09:45:16;3.72;;;2.20;;
37355;SDS011;48747;50.250;18.848;2023-07-08T09:47:30;4.72;;;2.40;;
37355;SDS011;48747;50.250;18.848;2023-07-08T09:49:37;4.65;;;2.22;;
37355;SDS011;48747;50.250;18.848;2023-07-08T09:51:40;5.33;;;2.30;;
37355;SDS011;48747;50.250;18.848;2023-07-08T09:53:50;5.37;;;2.33;;
37355;SDS011;48747;50.250;18.848;2023-07-08T09:55:57;5.97;;;2.20;;
37355;SDS011;48747;50.250;18.848;2023-07-08T09:58:03;2.62;;;2.08;;
37355;SDS011;48747;50.250;18.848;2023-07-08T10:00:17;3.55;;;2.27;;
37355;SDS011;48747;50.250;18.848;2023-07-08T10:04:37;3.92;;;1.80;;
37355;SDS011;48747;50.250;18.848;2023-07-08T10:06:43;3.10;;;2.02;;
37355;SDS011;48747;50.250;18.848;2023-07-08T10:08:52;3.85;;;1.92;;
37355;SDS011;48747;50.250;18.848;2023-07-08T10:11:18;3.35;;;2.15;;
37355;SDS011;48747;50.250;18.848;2023-07-08T10:13:12;5.08;;;2.40;;
37355;SDS011;48747;50.250;18.848;2023-07-08T10:15:36;5.30;;;2.25;;
37355;SDS011;48747;50.250;18.848;2023-07-08T10:17:36;2.95;;;2.20;;
37355;SDS011;48747;50.250;18.848;2023-07-08T10:19:43;2.67;;;2.05;;
37355;SDS011;48747;50.250;18.848;2023-07-08T10:26:37;2.90;;;2.20;;
37355;SDS011;48747;50.250;18.848;2023-07-08T10:28:44;4.15;;;2.17;;
37355;SDS011;48747;50.250;18.848;2023-07-08T10:33:21;4.55;;;2.02;;
37355;SDS011;48747;50.250;18.848;2023-07-08T10:35:36;3.80;;;2.25;;
37355;SDS011;48747;50.250;18.848;2023-07-08T10:56:59;6.60;;;2.10;;
37355;SDS011;48747;50.250;18.848;2023-07-08T10:59:04;3.00;;;2.08;;
37355;SDS011;48747;50.250;18.848;2023-07-08T11:05:44;3.50;;;2.10;;
37355;SDS011;48747;50.250;18.848;2023-07-08T11:10:22;2.50;;;1.90;;
37355;SDS011;48747;50.250;18.848;2023-07-08T11:12:55;3.80;;;2.02;;
37355;SDS011;48747;50.250;18.848;2023-07-08T11:17:05;3.47;;;1.95;;
37355;SDS011;48747;50.250;18.848;2023-07-08T11:19:25;3.42;;;2.22;;
37355;SDS011;48747;50.250;18.848;2023-07-08T11:21:37;3.47;;;1.80;;
37355;SDS011;48747;50.250;18.848;2023-07-08T11:23:40;5.12;;;2.15;;
37355;SDS011;48747;50.250;18.848;2023-07-08T11:25:47;6.87;;;2.10;;
37355;SDS011;48747;50.250;18.848;2023-07-08T11:27:54;3.65;;;2.30;;
37355;SDS011;48747;50.250;18.848;2023-07-08T11:30:04;2.83;;;2.08;;
37355;SDS011;48747;50.250;18.848;2023-07-08T11:32:19;3.77;;;1.90;;
37355;SDS011;48747;50.250;18.848;2023-07-08T11:34:27;3.25;;;2.30;;
37355;SDS011;48747;50.250;18.848;2023-07-08T11:36:32;3.90;;;2.00;;
37355;SDS011;48747;50.250;18.848;2023-07-08T11:38:40;2.67;;;2.20;;
37355;SDS011;48747;50.250;18.848;2023-07-08T11:40:58;3.20;;;2.27;;
37355;SDS011;48747;50.250;18.848;2023-07-08T11:43:15;3.22;;;2.05;;
37355;SDS011;48747;50.250;18.848;2023-07-08T11:45:29;4.15;;;2.08;;
37355;SDS011;48747;50.250;18.848;2023-07-08T11:47:35;2.90;;;2.17;;
37355;SDS011;48747;50.250;18.848;2023-07-08T11:49:41;3.83;;;2.15;;
37355;SDS011;48747;50.250;18.848;2023-07-08T11:51:46;4.95;;;2.17;;
37355;SDS011;48747;50.250;18.848;2023-07-08T11:54:01;3.30;;;2.00;;
37355;SDS011;48747;50.250;18.848;2023-07-08T11:58:23;5.45;;;2.22;;
37355;SDS011;48747;50.250;18.848;2023-07-08T12:00:30;4.35;;;2.20;;
37355;SDS011;48747;50.250;18.848;2023-07-08T12:02:47;3.02;;;2.30;;
37355;SDS011;48747;50.250;18.848;2023-07-08T12:05:02;3.27;;;2.20;;
37355;SDS011;48747;50.250;18.848;2023-07-08T12:07:16;4.85;;;2.10;;
37355;SDS011;48747;50.250;18.848;2023-07-08T12:09:25;4.67;;;2.20;;
37355;SDS011;48747;50.250;18.848;2023-07-08T12:11:40;3.33;;;2.30;;
37355;SDS011;48747;50.250;18.848;2023-07-08T12:13:46;2.70;;;2.00;;
37355;SDS011;48747;50.250;18.848;2023-07-08T12:15:47;4.03;;;2.10;;
37355;SDS011;48747;50.250;18.848;2023-07-08T12:17:53;3.02;;;1.90;;
37355;SDS011;48747;50.250;18.848;2023-07-08T12:20:06;3.22;;;1.80;;
37355;SDS011;48747;50.250;18.848;2023-07-08T12:22:20;4.25;;;2.00;;
37355;SDS011;48747;50.250;18.848;2023-07-08T12:24:30;2.27;;;1.90;;
37355;SDS011;48747;50.250;18.848;2023-07-08T12:26:33;4.80;;;2.10;;
37355;SDS011;48747;50.250;18.848;2023-07-08T12:28:37;2.83;;;1.92;;
37355;SDS011;48747;50.250;18.848;2023-07-08T12:30:43;2.67;;;2.00;;
37355;SDS011;48747;50.250;18.848;2023-07-08T12:32:54;3.25;;;1.92;;
37355;SDS011;48747;50.250;18.848;2023-07-08T12:35:00;4.03;;;2.30;;
37355;SDS011;48747;50.250;18.848;2023-07-08T12:37:04;4.00;;;2.30;;
37355;SDS011;48747;50.250;18.848;2023-07-08T12:39:13;3.17;;;1.90;;
37355;SDS011;48747;50.250;18.848;2023-07-08T12:41:19;3.62;;;2.20;;
37355;SDS011;48747;50.250;18.848;2023-07-08T12:43:29;2.60;;;1.95;;
37355;SDS011;48747;50.250;18.848;2023-07-08T12:45:32;3.85;;;2.20;;
37355;SDS011;48747;50.250;18.848;2023-07-08T12:47:35;2.52;;;2.05;;
37355;SDS011;48747;50.250;18.848;2023-07-08T12:49:38;2.87;;;1.98;;
37355;SDS011;48747;50.250;18.848;2023-07-08T12:51:42;4.75;;;1.90;;
37355;SDS011;48747;50.250;18.848;2023-07-08T12:53:46;5.67;;;1.87;;
37355;SDS011;48747;50.250;18.848;2023-07-08T12:55:49;3.20;;;2.22;;
37355;SDS011;48747;50.250;18.848;2023-07-08T12:57:58;3.25;;;1.95;;
37355;SDS011;48747;50.250;18.848;2023-07-08T13:28:13;5.60;;;2.10;;
37355;SDS011;48747;50.250;18.848;2023-07-08T13:32:37;2.00;;;1.75;;
37355;SDS011;48747;50.250;18.848;2023-07-08T14:29:39;3.33;;;1.70;;
37355;SDS011;48747;50.250;18.848;2023-07-08T14:53:13;4.05;;;1.90;;
37355;SDS011;48747;50.250;18.848;2023-07-08T15:24:19;6.75;;;2.20;;
37355;SDS011;48747;50.250;18.848;2023-07-08T15:26:14;4.45;;;2.35;;
37355;SDS011;48747;50.250;18.848;2023-07-08T15:28:28;3.67;;;1.92;;
37355;SDS011;48747;50.250;18.848;2023-07-08T15:35:49;4.12;;;2.20;;